createdAt,value
2019-04-28T00:01:24.651Z,66.91
2019-04-28T00:03:53.032Z,66.91
2019-04-28T00:06:21.574Z,67.06
2019-04-28T00:08:51.740Z,67.17
2019-04-28T00:11:21.631Z,67.32
2019-04-28T00:13:53.225Z,67.75
2019-04-28T00:16:22.842Z,67.86
2019-04-28T00:18:51.648Z,67.84
2019-04-28T00:21:24.157Z,67.84
2019-04-28T00:23:54.196Z,67.87
2019-04-28T00:26:40.926Z,67.87
2019-04-28T00:29:11.091Z,68.06
2019-04-28T00:31:41.390Z,68.06
2019-04-28T00:34:11.497Z,68.38
2019-04-28T00:36:41.212Z,68.58
2019-04-28T00:39:11.160Z,68.58
2019-04-28T00:41:39.683Z,68.32
2019-04-28T00:44:08.068Z,68.32
2019-04-28T00:46:37.425Z,68.29
2019-04-28T00:49:05.829Z,68.08
2019-04-28T00:51:34.224Z,68.13
2019-04-28T00:54:02.773Z,68.08
2019-04-28T00:56:31.693Z,68.08
2019-04-28T00:59:01.659Z,68.25
2019-04-28T01:01:31.762Z,68.59
2019-04-28T01:04:01.964Z,68.54
2019-04-28T01:06:32.143Z,68.54
2019-04-28T01:09:01.337Z,68.41
2019-04-28T01:11:31.624Z,68.25
2019-04-28T01:14:01.749Z,68.25
2019-04-28T01:16:31.872Z,68.85
2019-04-28T01:19:01.899Z,68.85
2019-04-28T01:21:49.859Z,68.83
2019-04-28T01:24:20.106Z,68.89
2019-04-28T01:26:50.804Z,68.87
2019-04-28T01:29:19.579Z,68.98
2019-04-28T01:31:49.870Z,69.13
2019-04-28T01:34:22.528Z,69.13
2019-04-28T01:36:51.723Z,69.21
2019-04-28T01:39:20.295Z,69.21
2019-04-28T01:41:49.601Z,68.69
2019-04-28T01:44:19.855Z,68.97
2019-04-28T01:46:49.636Z,68.97
2019-04-28T01:49:19.649Z,68.53
2019-04-28T01:52:00.543Z,68.84
2019-04-28T01:54:30.260Z,68.63
2019-04-28T01:57:01.110Z,69.07
2019-04-28T01:59:30.207Z,69.07
2019-04-28T02:02:00.180Z,69.35
2019-04-28T02:04:29.998Z,69.35
2019-04-28T02:06:59.800Z,69.25
2019-04-28T02:09:29.682Z,69.50
2019-04-28T02:11:58.346Z,69.28
2019-04-28T02:14:26.745Z,69.28
2019-04-28T02:16:55.146Z,69.28
2019-04-28T02:19:23.523Z,69.30
2019-04-28T02:21:56.156Z,69.25
2019-04-28T02:24:32.164Z,69.05
2019-04-28T02:27:01.143Z,69.01
2019-04-28T02:29:30.491Z,69.01
2019-04-28T02:32:02.265Z,68.94
2019-04-28T02:34:31.213Z,68.94
2019-04-28T02:37:01.411Z,68.82
2019-04-28T02:39:31.314Z,68.82
2019-04-28T02:42:01.377Z,68.82
2019-04-28T02:44:33.435Z,68.90
2019-04-28T02:47:01.037Z,69.10
2019-04-28T02:49:31.867Z,69.23
2019-04-28T02:52:04.586Z,69.25
2019-04-28T02:54:32.975Z,69.25
2019-04-28T02:57:01.556Z,69.39
2019-04-28T02:59:30.504Z,69.04
2019-04-28T03:02:00.688Z,68.97
2019-04-28T03:04:30.858Z,69.07
2019-04-28T03:07:01.354Z,69.09
2019-04-28T03:09:30.791Z,69.08
2019-04-28T03:12:01.509Z,68.08
2019-04-28T03:14:30.498Z,68.08
2019-04-28T03:17:00.803Z,68.37
2019-04-28T03:19:33.735Z,68.63
2019-04-28T03:22:01.365Z,68.71
2019-04-28T03:24:31.607Z,67.13
2019-04-28T03:27:07.060Z,67.13
2019-04-28T03:29:37.088Z,66.66
2019-04-28T03:32:25.112Z,67.22
2019-04-28T03:34:53.081Z,67.22
2019-04-28T03:37:21.554Z,67.51
2019-04-28T03:39:50.432Z,67.38
2019-04-28T03:42:21.566Z,66.51
2019-04-28T03:44:51.071Z,66.94
2019-04-28T03:47:21.126Z,66.85
2019-04-28T03:49:50.892Z,67.12
2019-04-28T03:52:21.291Z,67.12
2019-04-28T03:54:50.839Z,66.29
2019-04-28T03:57:21.538Z,67.04
2019-04-28T03:59:51.199Z,67.04
2019-04-28T04:02:22.940Z,67.06
2019-04-28T04:04:52.482Z,67.09
2019-04-28T04:07:21.520Z,65.92
2019-04-28T04:10:03.851Z,66.44
2019-04-28T04:12:36.782Z,66.36
2019-04-28T04:15:14.521Z,65.37
2019-04-28T04:18:02.451Z,65.37
2019-04-28T04:20:31.222Z,65.55
2019-04-28T04:23:01.388Z,65.67
2019-04-28T04:25:31.308Z,65.54
2019-04-28T04:28:03.524Z,66.12
2019-04-28T04:30:31.127Z,65.77
2019-04-28T04:33:01.348Z,64.31
2019-04-28T04:35:31.482Z,65.10
2019-04-28T04:38:00.797Z,65.10
2019-04-28T04:40:31.614Z,64.69
2019-04-28T04:43:01.588Z,64.71
2019-04-28T04:45:30.726Z,64.91
2019-04-28T04:48:00.654Z,64.75
2019-04-28T04:50:31.435Z,64.75
2019-04-28T04:53:02.390Z,64.71
2019-04-28T04:55:30.941Z,65.43
2019-04-28T04:58:00.827Z,64.63
2019-04-28T05:00:40.497Z,65.30
2019-04-28T05:03:14.308Z,65.30
2019-04-28T05:05:44.200Z,65.50
2019-04-28T05:08:15.544Z,65.30
2019-04-28T05:10:42.705Z,64.24
2019-04-28T05:13:11.111Z,64.24
2019-04-28T05:15:40.046Z,65.42
2019-04-28T05:18:10.167Z,65.42
2019-04-28T05:20:40.391Z,64.22
2019-04-28T05:23:25.658Z,65.46
2019-04-28T05:25:54.275Z,65.12
2019-04-28T05:28:22.686Z,64.40
2019-04-28T05:30:51.103Z,64.36
2019-04-28T05:33:33.313Z,64.36
2019-04-28T05:36:01.662Z,65.26
2019-04-28T05:38:30.316Z,65.26
2019-04-28T05:41:02.335Z,65.31
2019-04-28T05:43:31.771Z,65.31
2019-04-28T05:46:08.047Z,65.65
2019-04-28T05:48:38.068Z,66.04
2019-04-28T05:51:23.953Z,66.12
2019-04-28T05:54:02.770Z,66.12
2019-04-28T05:56:35.509Z,66.42
2019-04-28T05:59:05.771Z,66.23
2019-04-28T06:01:35.789Z,66.23
2019-04-28T06:04:04.280Z,65.96
2019-04-28T06:06:34.299Z,65.43
2019-04-28T06:09:04.341Z,65.86
2019-04-28T06:11:39.641Z,65.86
2019-04-28T06:14:09.784Z,66.36
2019-04-28T06:16:40.427Z,66.82
2019-04-28T06:19:09.757Z,66.82
2019-04-28T06:21:38.632Z,67.24
2019-04-28T06:24:07.021Z,67.73
2019-04-28T06:26:35.435Z,68.10
2019-04-28T06:29:04.008Z,68.10
2019-04-28T06:31:32.400Z,68.52
2019-04-28T06:34:00.795Z,68.51
2019-04-28T06:36:29.264Z,68.19
2019-04-28T06:38:57.728Z,68.85
2019-04-28T06:41:26.704Z,68.49
2019-04-28T06:43:55.090Z,68.49
2019-04-28T06:46:23.477Z,67.89
2019-04-28T06:48:51.875Z,67.82
2019-04-28T06:51:20.567Z,67.14
2019-04-28T06:53:48.970Z,67.16
2019-04-28T06:56:17.362Z,66.86
2019-04-28T06:58:58.141Z,66.71
2019-04-28T07:01:15.951Z,66.71
2019-04-28T07:03:44.559Z,66.00
2019-04-28T07:06:13.180Z,65.56
2019-04-28T07:08:41.631Z,64.60
2019-04-28T07:11:10.039Z,64.85
2019-04-28T07:13:38.492Z,64.39
2019-04-28T07:16:06.873Z,63.63
2019-04-28T07:18:35.260Z,63.89
2019-04-28T07:21:20.363Z,63.88
2019-04-28T07:23:49.101Z,64.13
2019-04-28T07:26:17.512Z,62.74
2019-04-28T07:28:45.893Z,62.79
2019-04-28T07:31:14.500Z,61.96
2019-04-28T07:33:42.950Z,62.03
2019-04-28T07:36:11.444Z,61.24
2019-04-28T07:38:39.837Z,62.10
2019-04-28T07:41:08.331Z,59.49
2019-04-28T07:43:36.808Z,58.50
2019-04-28T07:46:07.293Z,59.32
2019-04-28T07:48:35.676Z,60.62
2019-04-28T07:51:04.392Z,60.35
2019-04-28T07:53:37.222Z,60.23
2019-04-28T07:56:05.922Z,60.41
2019-04-28T07:58:34.327Z,60.15
2019-04-28T08:01:05.892Z,57.52
2019-04-28T08:03:34.581Z,54.92
2019-04-28T08:06:03.341Z,55.36
2019-04-28T08:08:31.796Z,55.22
2019-04-28T08:11:00.251Z,55.93
2019-04-28T08:13:29.000Z,54.52
2019-04-28T08:15:57.383Z,54.68
2019-04-28T08:18:25.769Z,53.11
2019-04-28T08:20:54.168Z,53.26
2019-04-28T08:23:22.562Z,54.08
2019-04-28T08:25:50.942Z,54.97
2019-04-28T08:28:19.321Z,51.26
2019-04-28T08:30:47.759Z,52.57
2019-04-28T08:33:27.037Z,52.50
2019-04-28T08:35:55.431Z,52.56
2019-04-28T08:38:23.899Z,51.78
2019-04-28T08:40:52.294Z,53.01
2019-04-28T08:43:20.677Z,53.10
2019-04-28T08:45:49.066Z,53.23
2019-04-28T08:48:17.730Z,51.81
2019-04-28T08:50:46.119Z,53.63
2019-04-28T08:53:14.518Z,53.66
2019-04-28T08:55:42.901Z,52.03
2019-04-28T08:58:11.284Z,50.69
2019-04-28T09:00:39.681Z,49.62
2019-04-28T09:03:10.434Z,47.65
2019-04-28T09:05:38.825Z,48.11
2019-04-28T09:08:07.205Z,46.19
2019-04-28T09:10:35.759Z,47.36
2019-04-28T09:13:04.149Z,47.25
2019-04-28T09:15:32.526Z,48.22
2019-04-28T09:18:01.047Z,48.20
2019-04-28T09:20:29.411Z,48.85
2019-04-28T09:22:57.861Z,49.84
2019-04-28T09:25:26.333Z,51.27
2019-04-28T09:27:54.711Z,52.65
2019-04-28T09:30:23.259Z,52.40
2019-04-28T09:32:51.948Z,51.63
2019-04-28T09:35:20.338Z,52.68
2019-04-28T09:37:48.743Z,52.93
2019-04-28T09:40:17.891Z,53.63
2019-04-28T09:43:03.031Z,53.96
2019-04-28T09:45:33.096Z,53.96
2019-04-28T09:48:01.469Z,54.46
2019-04-28T09:50:29.932Z,53.40
2019-04-28T09:52:58.793Z,53.18
2019-04-28T09:55:27.185Z,53.86
2019-04-28T09:57:55.567Z,54.70
2019-04-28T10:00:24.659Z,53.60
2019-04-28T10:02:53.375Z,53.21
2019-04-28T10:05:21.802Z,52.87
2019-04-28T10:07:50.174Z,52.69
2019-04-28T10:10:18.736Z,54.64
2019-04-28T10:12:47.606Z,55.93
2019-04-28T10:15:16.125Z,58.38
2019-04-28T10:17:44.513Z,59.60
2019-04-28T10:20:13.432Z,59.43
2019-04-28T10:22:41.834Z,60.01
2019-04-28T10:25:10.764Z,60.92
2019-04-28T10:27:39.223Z,61.16
2019-04-28T10:30:11.600Z,62.27
2019-04-28T10:32:40.334Z,61.39
2019-04-28T10:35:09.570Z,61.06
2019-04-28T10:37:38.052Z,58.11
2019-04-28T10:40:10.117Z,57.28
2019-04-28T10:42:38.509Z,56.47
2019-04-28T10:45:09.475Z,54.90
2019-04-28T10:47:38.024Z,56.34
2019-04-28T10:50:06.945Z,56.76
2019-04-28T10:52:35.336Z,51.03
2019-04-28T10:55:05.253Z,53.72
2019-04-28T10:57:33.728Z,53.14
2019-04-28T11:00:02.188Z,52.34
2019-04-28T11:02:30.594Z,52.42
2019-04-28T11:05:18.690Z,50.20
2019-04-28T11:07:47.095Z,50.40
2019-04-28T11:10:22.017Z,51.18
2019-04-28T11:12:50.412Z,50.30
2019-04-28T11:15:24.807Z,53.57
2019-04-28T11:17:53.309Z,52.34
2019-04-28T11:20:22.102Z,51.20
2019-04-28T11:22:50.480Z,51.39
2019-04-28T11:25:18.876Z,51.24
2019-04-28T11:27:47.327Z,50.75
2019-04-28T11:30:16.892Z,51.27
2019-04-28T11:32:52.602Z,49.96
2019-04-28T11:35:22.733Z,48.38
2019-04-28T11:37:51.190Z,47.94
2019-04-28T11:40:19.603Z,47.82
2019-04-28T11:42:47.990Z,48.23
2019-04-28T11:45:16.619Z,48.35
2019-04-28T11:47:45.014Z,48.45
2019-04-28T11:50:14.310Z,42.68
2019-04-28T11:52:42.680Z,45.38
2019-04-28T11:55:11.687Z,45.58
2019-04-28T11:57:40.515Z,44.18
2019-04-28T12:00:14.397Z,43.87
2019-04-28T12:02:43.254Z,44.36
2019-04-28T12:05:12.009Z,45.45
2019-04-28T12:07:40.395Z,47.31
2019-04-28T12:10:10.958Z,47.37
2019-04-28T12:12:57.214Z,49.60
2019-04-28T12:15:36.090Z,48.86
2019-04-28T12:18:15.274Z,45.28
2019-04-28T12:20:43.922Z,46.16
2019-04-28T12:23:12.300Z,45.88
2019-04-28T12:25:40.679Z,46.05
2019-04-28T12:28:09.080Z,46.13
2019-04-28T12:30:37.462Z,45.75
2019-04-28T12:33:05.851Z,44.70
2019-04-28T12:35:47.264Z,44.38
2019-04-28T12:38:05.296Z,46.81
2019-04-28T12:40:33.690Z,47.79
2019-04-28T12:43:02.057Z,47.14
2019-04-28T12:45:35.245Z,47.25
2019-04-28T12:48:00.913Z,48.94
2019-04-28T12:50:33.854Z,48.01
2019-04-28T12:53:02.308Z,49.55
2019-04-28T12:55:30.931Z,51.10
2019-04-28T12:57:59.347Z,51.53
2019-04-28T13:00:29.577Z,50.59
2019-04-28T13:03:05.817Z,50.06
2019-04-28T13:05:36.397Z,50.36
2019-04-28T13:08:04.848Z,51.14
2019-04-28T13:10:33.641Z,51.53
2019-04-28T13:13:02.046Z,50.54
2019-04-28T13:15:30.465Z,51.49
2019-04-28T13:17:58.855Z,52.43
2019-04-28T13:20:27.254Z,51.97
2019-04-28T13:22:56.059Z,52.82
2019-04-28T13:25:24.453Z,52.56
2019-04-28T13:27:52.869Z,50.01
2019-04-28T13:30:21.403Z,48.37
2019-04-28T13:32:50.175Z,50.28
2019-04-28T13:35:18.648Z,47.82
2019-04-28T13:37:47.414Z,48.45
2019-04-28T13:40:20.672Z,46.60
2019-04-28T13:42:49.198Z,45.60
2019-04-28T13:45:19.335Z,47.25
2019-04-28T13:47:47.788Z,46.59
2019-04-28T13:50:31.643Z,46.36
2019-04-28T13:53:01.020Z,44.12
2019-04-28T13:55:31.247Z,42.62
2019-04-28T13:58:01.743Z,42.51
2019-04-28T14:00:37.549Z,42.57
2019-04-28T14:03:14.012Z,42.94
2019-04-28T14:05:56.391Z,43.35
2019-04-28T14:08:24.784Z,43.21
2019-04-28T14:10:53.249Z,43.32
2019-04-28T14:13:21.773Z,43.51
2019-04-28T14:15:50.766Z,42.08
2019-04-28T14:18:19.373Z,44.16
2019-04-28T14:20:47.815Z,45.35
2019-04-28T14:23:16.224Z,47.90
2019-04-28T14:25:44.625Z,49.34
2019-04-28T14:28:13.736Z,48.56
2019-04-28T14:30:42.192Z,49.02
2019-04-28T14:33:10.634Z,48.77
2019-04-28T14:35:40.400Z,49.77
2019-04-28T14:38:08.859Z,50.08
2019-04-28T14:40:37.567Z,51.49
2019-04-28T14:43:05.977Z,49.13
2019-04-28T14:45:34.613Z,48.64
2019-04-28T14:48:07.631Z,47.63
2019-04-28T14:50:36.092Z,48.99
2019-04-28T14:53:04.646Z,50.85
2019-04-28T14:55:33.066Z,49.76
2019-04-28T14:58:01.527Z,48.05
2019-04-28T15:00:31.790Z,47.23
2019-04-28T15:03:05.183Z,48.74
2019-04-28T15:05:44.547Z,48.27
2019-04-28T15:08:21.031Z,48.19
2019-04-28T15:11:10.068Z,49.13
2019-04-28T15:13:38.464Z,48.18
2019-04-28T15:16:07.103Z,48.36
2019-04-28T15:18:35.762Z,49.57
2019-04-28T15:21:04.295Z,49.49
2019-04-28T15:23:32.776Z,48.83
2019-04-28T15:26:01.505Z,50.12
2019-04-28T15:28:42.715Z,50.40
2019-04-28T15:31:07.117Z,49.63
2019-04-28T15:33:36.728Z,50.41
2019-04-28T15:36:05.609Z,51.18
2019-04-28T15:38:35.766Z,51.10
2019-04-28T15:41:21.033Z,51.24
2019-04-28T15:43:44.605Z,51.51
2019-04-28T15:46:13.144Z,52.34
2019-04-28T15:48:41.589Z,50.64
2019-04-28T15:51:10.456Z,51.75
2019-04-28T15:53:38.911Z,51.09
2019-04-28T15:56:08.955Z,51.29
2019-04-28T15:58:39.540Z,50.59
2019-04-28T16:01:08.385Z,50.98
2019-04-28T16:03:37.178Z,51.49
2019-04-28T16:06:05.925Z,50.63
2019-04-28T16:08:34.487Z,49.76
2019-04-28T16:11:03.065Z,50.86
2019-04-28T16:13:31.603Z,52.41
2019-04-28T16:16:00.125Z,51.00
2019-04-28T16:18:29.295Z,51.60
2019-04-28T16:20:57.996Z,51.59
2019-04-28T16:23:29.888Z,52.58
2019-04-28T16:25:58.752Z,53.40
2019-04-28T16:28:33.021Z,53.29
2019-04-28T16:31:01.507Z,52.40
2019-04-28T16:33:30.202Z,52.73
2019-04-28T16:35:58.786Z,51.88
2019-04-28T16:38:27.169Z,52.19
2019-04-28T16:40:58.094Z,51.52
2019-04-28T16:43:27.228Z,51.32
2019-04-28T16:45:55.617Z,51.71
2019-04-28T16:48:24.106Z,52.00
2019-04-28T16:50:52.734Z,51.92
2019-04-28T16:53:21.331Z,51.44
2019-04-28T16:55:51.741Z,52.26
2019-04-28T16:58:31.948Z,52.96
2019-04-28T17:01:04.872Z,52.01
2019-04-28T17:03:35.071Z,53.45
2019-04-28T17:06:03.790Z,51.27
2019-04-28T17:08:33.769Z,51.10
2019-04-28T17:11:03.055Z,51.18
2019-04-28T17:13:33.446Z,51.12
2019-04-28T17:16:01.896Z,51.44
2019-04-28T17:18:30.282Z,50.57
2019-04-28T17:20:58.738Z,50.86
2019-04-28T17:23:28.450Z,50.88
2019-04-28T17:25:57.848Z,51.14
2019-04-28T17:28:26.517Z,50.16
2019-04-28T17:30:54.921Z,51.08
2019-04-28T17:33:23.302Z,53.05
2019-04-28T17:35:51.696Z,53.17
2019-04-28T17:38:20.088Z,51.30
2019-04-28T17:40:48.476Z,51.77
2019-04-28T17:43:16.873Z,52.07
2019-04-28T17:45:45.547Z,52.16
2019-04-28T17:48:24.319Z,53.38
2019-04-28T17:50:52.701Z,53.04
2019-04-28T17:53:21.098Z,53.28
2019-04-28T17:55:49.779Z,53.91
2019-04-28T17:58:18.190Z,52.97
2019-04-28T18:00:54.344Z,53.50
2019-04-28T18:03:24.473Z,53.97
2019-04-28T18:06:16.780Z,55.35
2019-04-28T18:08:33.817Z,56.48
2019-04-28T18:11:02.136Z,55.55
2019-04-28T18:13:30.630Z,56.02
2019-04-28T18:16:18.692Z,56.47
2019-04-28T18:18:51.502Z,58.21
2019-04-28T18:21:19.899Z,58.26
2019-04-28T18:23:48.320Z,58.79
2019-04-28T18:26:16.710Z,59.46
2019-04-28T18:28:45.115Z,60.34
2019-04-28T18:31:15.443Z,60.93
2019-04-28T18:33:45.484Z,61.54
2019-04-28T18:36:21.389Z,62.29
2019-04-28T18:39:07.713Z,62.62
2019-04-28T18:41:40.497Z,63.08
2019-04-28T18:44:10.533Z,63.32
2019-04-28T18:46:39.086Z,63.65
2019-04-28T18:49:07.427Z,63.90
2019-04-28T18:51:35.896Z,63.92
2019-04-28T18:54:04.554Z,64.25
2019-04-28T18:56:33.889Z,64.67
2019-04-28T18:59:02.390Z,64.67
2019-04-28T19:01:45.111Z,64.83
2019-04-28T19:04:13.757Z,65.05
2019-04-28T19:06:42.162Z,65.88
2019-04-28T19:09:18.957Z,65.88
2019-04-28T19:11:51.713Z,66.01
2019-04-28T19:14:22.056Z,66.32
2019-04-28T19:16:57.830Z,66.77
2019-04-28T19:19:27.820Z,66.74
2019-04-28T19:21:57.104Z,66.74
2019-04-28T19:24:26.612Z,67.09
2019-04-28T19:26:55.159Z,67.09
2019-04-28T19:29:23.563Z,67.42
2019-04-28T19:31:51.971Z,67.86
2019-04-28T19:34:20.682Z,68.35
2019-04-28T19:36:49.089Z,68.34
2019-04-28T19:39:17.506Z,68.66
2019-04-28T19:41:46.029Z,68.68
2019-04-28T19:44:14.724Z,69.13
2019-04-28T19:46:43.126Z,69.13
2019-04-28T19:49:11.548Z,69.22
2019-04-28T19:51:39.931Z,69.43
2019-04-28T19:54:09.188Z,69.43
2019-04-28T19:56:39.223Z,69.50
2019-04-28T19:59:09.316Z,69.68
2019-04-28T20:01:38.205Z,69.87
2019-04-28T20:04:06.581Z,70.04
2019-04-28T20:06:35.132Z,70.04
2019-04-28T20:09:05.711Z,70.53
2019-04-28T20:11:34.931Z,70.53
2019-04-28T20:14:03.390Z,71.13
2019-04-28T20:16:31.785Z,71.15
2019-04-28T20:19:00.179Z,71.15
2019-04-28T20:21:28.649Z,71.15
2019-04-28T20:23:57.036Z,71.08
2019-04-28T20:26:25.803Z,71.08
2019-04-28T20:28:54.181Z,71.39
2019-04-28T20:31:23.578Z,71.54
2019-04-28T20:33:53.118Z,71.51
2019-04-28T20:36:23.139Z,71.51
2019-04-28T20:38:53.168Z,71.33
2019-04-28T20:41:23.188Z,71.32
2019-04-28T20:43:52.964Z,71.59
2019-04-28T20:46:21.352Z,71.59
2019-04-28T20:48:50.077Z,71.70
2019-04-28T20:51:18.471Z,72.13
2019-04-28T20:53:46.845Z,72.07
2019-04-28T20:56:15.296Z,72.07
2019-04-28T20:58:43.676Z,72.07
2019-04-28T21:01:12.072Z,72.21
2019-04-28T21:03:40.449Z,72.63
2019-04-28T21:06:08.843Z,72.86
2019-04-28T21:08:37.257Z,72.70
2019-04-28T21:11:06.989Z,72.63
2019-04-28T21:13:35.390Z,72.73
2019-04-28T21:16:04.103Z,72.99
2019-04-28T21:18:32.520Z,73.16
2019-04-28T21:21:00.900Z,73.40
2019-04-28T21:23:29.560Z,73.46
2019-04-28T21:25:58.255Z,73.38
2019-04-28T21:28:26.627Z,73.17
2019-04-28T21:30:55.351Z,73.16
2019-04-28T21:33:23.739Z,73.01
2019-04-28T21:35:52.125Z,73.03
2019-04-28T21:38:20.778Z,72.70
2019-04-28T21:40:49.408Z,72.75
2019-04-28T21:43:19.801Z,72.82
2019-04-28T21:45:59.341Z,72.96
2019-04-28T21:48:35.916Z,73.20
2019-04-28T21:51:04.319Z,73.28
2019-04-28T21:53:32.701Z,73.20
2019-04-28T21:56:01.098Z,73.29
2019-04-28T21:58:33.555Z,73.49
2019-04-28T22:01:00.601Z,73.65
2019-04-28T22:03:29.399Z,73.75
2019-04-28T22:05:57.961Z,73.89
2019-04-28T22:08:26.373Z,73.93
2019-04-28T22:10:54.753Z,74.01
2019-04-28T22:13:23.139Z,74.10
2019-04-28T22:15:51.538Z,74.37
2019-04-28T22:18:19.964Z,74.30
2019-04-28T22:20:48.680Z,74.35
2019-04-28T22:23:21.771Z,74.20
2019-04-28T22:25:50.450Z,74.25
2019-04-28T22:28:18.853Z,74.38
2019-04-28T22:30:47.525Z,74.28
2019-04-28T22:33:16.416Z,74.41
2019-04-28T22:35:44.796Z,74.48
2019-04-28T22:38:13.193Z,74.65
2019-04-28T22:40:41.585Z,74.79
2019-04-28T22:43:09.984Z,74.88
2019-04-28T22:45:38.368Z,74.95
2019-04-28T22:48:08.663Z,75.05
2019-04-28T22:50:42.778Z,75.19
2019-04-28T22:53:11.540Z,75.37
2019-04-28T22:55:41.567Z,75.39
2019-04-28T22:58:14.571Z,75.22
2019-04-28T23:01:03.387Z,75.17
2019-04-28T23:03:36.629Z,75.34
2019-04-28T23:06:05.106Z,75.67
2019-04-28T23:08:33.492Z,75.87
2019-04-28T23:11:01.889Z,76.80
2019-04-28T23:13:30.273Z,76.63
2019-04-28T23:15:58.738Z,76.61
2019-04-28T23:18:27.531Z,76.71
2019-04-28T23:20:57.570Z,76.77
2019-04-28T23:23:25.970Z,76.52
2019-04-28T23:25:54.353Z,76.49
2019-04-28T23:28:22.803Z,76.59
2019-04-28T23:30:51.387Z,76.68
2019-04-28T23:33:19.772Z,76.68
2019-04-28T23:35:48.169Z,76.66
2019-04-28T23:38:16.768Z,76.68
2019-04-28T23:40:47.254Z,76.66
2019-04-28T23:43:20.242Z,76.77
2019-04-28T23:45:48.632Z,76.88
2019-04-28T23:48:17.024Z,76.89
2019-04-28T23:51:03.839Z,76.92
2019-04-28T23:53:50.327Z,76.97
2019-04-28T23:56:19.032Z,77.04
2019-04-28T23:58:47.403Z,77.06
